Aérodrome :







RETROUVEZ-NOUS SUR...

 
LOGIN :

S'inscrire | Disclaimer

   EN    FR    IT 

 









Légende :    VFR   VFR Marginal   IFR   IFR Intensif   IFR Très Intensif
Visi : 
Plafond : 
>= 8 km
>= 3000ft
5 à 8 km
1000 à 3000 ft
1500m à 5 km
500 à 1000 ft
800 à 1500m
200 à 500 ft
< 800m
< 200 ft
Symboles :   Orages  Brouillard  Fortes neiges  Fortes précipitations  Vent > 20 kt






- Altitude de l'aérodrome : 62 ft
- Code IATA : ANU


TAPA - V C Bird Int.

DERNIER METAR :
  • 241800Z 08009KT 030V140 9999 FEW022 28/21 Q1015 NOSIG

METARs EXPIRÉS :
  • 241700Z 08009KT 050V150 9999 FEW022 28/21 Q1016 NOSIG
  • 241600Z 09008KT 030V170 9999 FEW020 28/22 Q1016 NOSIG

TAF TAF TAPA
Valide du 24 à 18h jusqu'au 25 à 18h UTC


241700Z 2418/2518 09006KT 9999 SCT020
PROB30
TEMPO 2500/2518 SHRA



MET'MAP, la Météo Aéronautique d'un coup d'oeil ! - Copyright ORBIFLY Décembre 2007 - Disclaimer

ORBIFLY MET'MAP TEAM :

Programmation & Développement : Alexandra Zaïnal
Sur une idée originale de : Baudouin d'Aumeries
Assistance à la programmation : Marc-Olivier Méhu
Soutien technique & logistique : Manuel Goepfert

Contact : metmap@orbifly.com




SOURCES & CREDITS :

   NOAA